sensor_id;sensor_type;location;lat;lon;timestamp;P1;durP1;ratioP1;P2;durP2;ratioP2
35048;SDS011;21236;48.740;-3.446;2022-07-19T00:00:10;13.75;;;5.47;;
35048;SDS011;21236;48.740;-3.446;2022-07-19T00:02:37;13.38;;;6.13;;
35048;SDS011;21236;48.740;-3.446;2022-07-19T00:05:04;10.45;;;5.50;;
35048;SDS011;21236;48.740;-3.446;2022-07-19T00:07:30;18.60;;;6.10;;
35048;SDS011;21236;48.740;-3.446;2022-07-19T00:09:56;15.50;;;6.70;;
35048;SDS011;21236;48.740;-3.446;2022-07-19T00:12:22;18.38;;;6.30;;
35048;SDS011;21236;48.740;-3.446;2022-07-19T00:14:48;13.25;;;6.28;;
35048;SDS011;21236;48.740;-3.446;2022-07-19T00:17:14;21.52;;;6.40;;
35048;SDS011;21236;48.740;-3.446;2022-07-19T00:19:41;16.02;;;6.60;;
35048;SDS011;21236;48.740;-3.446;2022-07-19T00:22:07;9.90;;;4.90;;
35048;SDS011;21236;48.740;-3.446;2022-07-19T00:24:33;11.70;;;6.43;;
35048;SDS011;21236;48.740;-3.446;2022-07-19T00:26:59;11.85;;;6.15;;
35048;SDS011;21236;48.740;-3.446;2022-07-19T00:29:25;22.98;;;6.72;;
35048;SDS011;21236;48.740;-3.446;2022-07-19T00:31:51;17.90;;;6.93;;
35048;SDS011;21236;48.740;-3.446;2022-07-19T00:34:17;10.77;;;6.88;;
35048;SDS011;21236;48.740;-3.446;2022-07-19T00:36:43;10.27;;;5.57;;
35048;SDS011;21236;48.740;-3.446;2022-07-19T00:39:09;17.52;;;6.00;;
35048;SDS011;21236;48.740;-3.446;2022-07-19T00:41:40;16.52;;;7.80;;
35048;SDS011;21236;48.740;-3.446;2022-07-19T00:44:06;15.07;;;6.35;;
35048;SDS011;21236;48.740;-3.446;2022-07-19T00:46:32;14.55;;;6.05;;
35048;SDS011;21236;48.740;-3.446;2022-07-19T00:48:58;16.48;;;6.40;;
35048;SDS011;21236;48.740;-3.446;2022-07-19T00:51:25;16.45;;;5.72;;
35048;SDS011;21236;48.740;-3.446;2022-07-19T00:53:51;11.82;;;5.97;;
35048;SDS011;21236;48.740;-3.446;2022-07-19T00:56:17;15.32;;;6.22;;
35048;SDS011;21236;48.740;-3.446;2022-07-19T00:58:44;17.75;;;5.80;;
35048;SDS011;21236;48.740;-3.446;2022-07-19T01:01:12;16.25;;;5.78;;
35048;SDS011;21236;48.740;-3.446;2022-07-19T01:03:39;14.13;;;7.38;;
35048;SDS011;21236;48.740;-3.446;2022-07-19T01:06:06;17.27;;;6.03;;
35048;SDS011;21236;48.740;-3.446;2022-07-19T01:08:32;13.93;;;6.90;;
35048;SDS011;21236;48.740;-3.446;2022-07-19T01:10:58;10.65;;;6.30;;
35048;SDS011;21236;48.740;-3.446;2022-07-19T01:13:25;10.93;;;6.30;;
35048;SDS011;21236;48.740;-3.446;2022-07-19T01:15:51;10.80;;;5.80;;
35048;SDS011;21236;48.740;-3.446;2022-07-19T01:18:17;15.60;;;6.50;;
35048;SDS011;21236;48.740;-3.446;2022-07-19T01:20:43;21.08;;;6.85;;
35048;SDS011;21236;48.740;-3.446;2022-07-19T01:23:09;17.33;;;6.45;;
35048;SDS011;21236;48.740;-3.446;2022-07-19T01:25:36;15.45;;;6.30;;
35048;SDS011;21236;48.740;-3.446;2022-07-19T01:28:03;8.80;;;5.68;;
35048;SDS011;21236;48.740;-3.446;2022-07-19T01:30:30;15.98;;;6.32;;
35048;SDS011;21236;48.740;-3.446;2022-07-19T01:32:56;11.68;;;6.28;;
35048;SDS011;21236;48.740;-3.446;2022-07-19T01:35:23;13.57;;;5.85;;
35048;SDS011;21236;48.740;-3.446;2022-07-19T01:37:49;12.05;;;5.63;;
35048;SDS011;21236;48.740;-3.446;2022-07-19T01:40:16;10.27;;;6.15;;
35048;SDS011;21236;48.740;-3.446;2022-07-19T01:42:42;14.70;;;7.47;;
35048;SDS011;21236;48.740;-3.446;2022-07-19T01:45:10;17.20;;;6.47;;
35048;SDS011;21236;48.740;-3.446;2022-07-19T01:47:36;17.65;;;6.53;;
35048;SDS011;21236;48.740;-3.446;2022-07-19T01:50:03;17.85;;;7.80;;
35048;SDS011;21236;48.740;-3.446;2022-07-19T01:52:29;10.88;;;5.88;;
35048;SDS011;21236;48.740;-3.446;2022-07-19T01:54:55;11.93;;;6.10;;
35048;SDS011;21236;48.740;-3.446;2022-07-19T01:57:21;23.52;;;6.80;;
35048;SDS011;21236;48.740;-3.446;2022-07-19T01:59:48;13.55;;;6.28;;
35048;SDS011;21236;48.740;-3.446;2022-07-19T02:02:14;16.65;;;7.03;;
35048;SDS011;21236;48.740;-3.446;2022-07-19T02:04:40;16.90;;;6.07;;
35048;SDS011;21236;48.740;-3.446;2022-07-19T02:07:06;15.60;;;6.00;;
35048;SDS011;21236;48.740;-3.446;2022-07-19T02:09:32;22.58;;;7.25;;
35048;SDS011;21236;48.740;-3.446;2022-07-19T02:11:59;15.70;;;6.50;;
35048;SDS011;21236;48.740;-3.446;2022-07-19T02:14:25;10.23;;;6.07;;
35048;SDS011;21236;48.740;-3.446;2022-07-19T02:16:51;15.18;;;6.55;;
35048;SDS011;21236;48.740;-3.446;2022-07-19T02:19:17;18.80;;;6.00;;
35048;SDS011;21236;48.740;-3.446;2022-07-19T02:21:43;20.40;;;5.85;;
35048;SDS011;21236;48.740;-3.446;2022-07-19T02:24:09;14.52;;;6.45;;
35048;SDS011;21236;48.740;-3.446;2022-07-19T02:26:35;18.20;;;6.25;;
35048;SDS011;21236;48.740;-3.446;2022-07-19T02:29:02;18.45;;;6.05;;
35048;SDS011;21236;48.740;-3.446;2022-07-19T02:31:28;13.80;;;6.00;;
35048;SDS011;21236;48.740;-3.446;2022-07-19T02:33:54;15.02;;;6.80;;
35048;SDS011;21236;48.740;-3.446;2022-07-19T02:36:20;19.52;;;7.18;;
35048;SDS011;21236;48.740;-3.446;2022-07-19T02:38:47;15.23;;;6.68;;
35048;SDS011;21236;48.740;-3.446;2022-07-19T02:41:13;20.63;;;7.28;;
35048;SDS011;21236;48.740;-3.446;2022-07-19T02:43:39;16.25;;;8.65;;
35048;SDS011;21236;48.740;-3.446;2022-07-19T02:46:06;17.85;;;9.07;;
35048;SDS011;21236;48.740;-3.446;2022-07-19T02:48:32;18.95;;;10.55;;
35048;SDS011;21236;48.740;-3.446;2022-07-19T02:50:58;26.80;;;10.05;;
35048;SDS011;21236;48.740;-3.446;2022-07-19T02:53:24;26.52;;;10.93;;
35048;SDS011;21236;48.740;-3.446;2022-07-19T02:55:50;18.02;;;11.50;;
35048;SDS011;21236;48.740;-3.446;2022-07-19T02:58:16;24.77;;;13.27;;
35048;SDS011;21236;48.740;-3.446;2022-07-19T03:00:43;24.42;;;14.45;;
35048;SDS011;21236;48.740;-3.446;2022-07-19T03:03:09;22.40;;;13.57;;
35048;SDS011;21236;48.740;-3.446;2022-07-19T03:05:55;27.48;;;14.55;;
35048;SDS011;21236;48.740;-3.446;2022-07-19T03:08:21;25.55;;;15.05;;
35048;SDS011;21236;48.740;-3.446;2022-07-19T03:10:47;31.52;;;17.17;;
35048;SDS011;21236;48.740;-3.446;2022-07-19T03:13:13;27.17;;;16.63;;
35048;SDS011;21236;48.740;-3.446;2022-07-19T03:15:39;37.65;;;17.58;;
35048;SDS011;21236;48.740;-3.446;2022-07-19T03:18:06;37.75;;;17.80;;
35048;SDS011;21236;48.740;-3.446;2022-07-19T03:20:32;35.50;;;20.02;;
35048;SDS011;21236;48.740;-3.446;2022-07-19T03:22:58;28.65;;;17.70;;
35048;SDS011;21236;48.740;-3.446;2022-07-19T03:25:24;28.55;;;17.13;;
35048;SDS011;21236;48.740;-3.446;2022-07-19T03:27:52;29.92;;;17.63;;
35048;SDS011;21236;48.740;-3.446;2022-07-19T03:30:18;33.30;;;19.20;;
35048;SDS011;21236;48.740;-3.446;2022-07-19T03:32:45;33.38;;;18.73;;
35048;SDS011;21236;48.740;-3.446;2022-07-19T03:35:11;35.60;;;18.52;;
35048;SDS011;21236;48.740;-3.446;2022-07-19T03:37:37;34.38;;;18.77;;
35048;SDS011;21236;48.740;-3.446;2022-07-19T03:40:04;28.73;;;18.55;;
35048;SDS011;21236;48.740;-3.446;2022-07-19T03:42:30;29.08;;;18.25;;
35048;SDS011;21236;48.740;-3.446;2022-07-19T03:44:56;32.83;;;17.60;;
35048;SDS011;21236;48.740;-3.446;2022-07-19T03:47:22;31.27;;;17.02;;
35048;SDS011;21236;48.740;-3.446;2022-07-19T03:49:48;31.65;;;18.50;;
35048;SDS011;21236;48.740;-3.446;2022-07-19T03:52:15;23.13;;;17.30;;
35048;SDS011;21236;48.740;-3.446;2022-07-19T03:54:41;34.13;;;19.48;;
35048;SDS011;21236;48.740;-3.446;2022-07-19T03:57:07;30.55;;;17.95;;
35048;SDS011;21236;48.740;-3.446;2022-07-19T03:59:33;31.83;;;18.67;;
35048;SDS011;21236;48.740;-3.446;2022-07-19T04:01:59;28.80;;;18.88;;
35048;SDS011;21236;48.740;-3.446;2022-07-19T04:04:25;31.73;;;19.08;;
35048;SDS011;21236;48.740;-3.446;2022-07-19T04:06:51;29.10;;;19.67;;
35048;SDS011;21236;48.740;-3.446;2022-07-19T04:09:18;32.30;;;19.85;;
35048;SDS011;21236;48.740;-3.446;2022-07-19T04:11:44;29.20;;;19.73;;
35048;SDS011;21236;48.740;-3.446;2022-07-19T04:14:10;33.20;;;20.00;;
35048;SDS011;21236;48.740;-3.446;2022-07-19T04:16:36;32.88;;;19.27;;
35048;SDS011;21236;48.740;-3.446;2022-07-19T04:19:02;32.10;;;18.65;;
35048;SDS011;21236;48.740;-3.446;2022-07-19T04:21:28;28.88;;;19.33;;
35048;SDS011;21236;48.740;-3.446;2022-07-19T04:23:54;32.05;;;18.92;;
35048;SDS011;21236;48.740;-3.446;2022-07-19T04:26:20;30.73;;;18.48;;
35048;SDS011;21236;48.740;-3.446;2022-07-19T04:28:47;28.20;;;18.00;;
35048;SDS011;21236;48.740;-3.446;2022-07-19T04:31:13;24.73;;;17.67;;
35048;SDS011;21236;48.740;-3.446;2022-07-19T04:33:40;29.48;;;18.20;;
35048;SDS011;21236;48.740;-3.446;2022-07-19T04:36:06;34.53;;;18.10;;
35048;SDS011;21236;48.740;-3.446;2022-07-19T04:38:32;27.25;;;17.33;;
35048;SDS011;21236;48.740;-3.446;2022-07-19T04:40:58;24.63;;;16.42;;
35048;SDS011;21236;48.740;-3.446;2022-07-19T04:43:24;23.92;;;16.73;;
35048;SDS011;21236;48.740;-3.446;2022-07-19T04:45:50;31.90;;;17.50;;
35048;SDS011;21236;48.740;-3.446;2022-07-19T04:48:16;24.95;;;15.82;;
35048;SDS011;21236;48.740;-3.446;2022-07-19T04:50:43;28.90;;;17.35;;
35048;SDS011;21236;48.740;-3.446;2022-07-19T04:53:09;25.67;;;17.00;;
35048;SDS011;21236;48.740;-3.446;2022-07-19T04:55:38;31.50;;;18.10;;
35048;SDS011;21236;48.740;-3.446;2022-07-19T04:58:04;28.30;;;18.60;;
35048;SDS011;21236;48.740;-3.446;2022-07-19T05:00:30;27.45;;;18.48;;
35048;SDS011;21236;48.740;-3.446;2022-07-19T05:02:56;25.50;;;17.88;;
35048;SDS011;21236;48.740;-3.446;2022-07-19T05:05:23;27.48;;;19.05;;
35048;SDS011;21236;48.740;-3.446;2022-07-19T05:07:49;28.95;;;18.23;;
35048;SDS011;21236;48.740;-3.446;2022-07-19T05:10:15;28.90;;;17.70;;
35048;SDS011;21236;48.740;-3.446;2022-07-19T05:12:42;29.90;;;18.50;;
35048;SDS011;21236;48.740;-3.446;2022-07-19T05:15:08;26.50;;;18.77;;
35048;SDS011;21236;48.740;-3.446;2022-07-19T05:17:34;31.30;;;19.65;;
35048;SDS011;21236;48.740;-3.446;2022-07-19T05:20:02;28.65;;;19.98;;
35048;SDS011;21236;48.740;-3.446;2022-07-19T05:22:28;32.42;;;20.48;;
35048;SDS011;21236;48.740;-3.446;2022-07-19T05:24:54;34.92;;;20.15;;
35048;SDS011;21236;48.740;-3.446;2022-07-19T05:27:21;28.15;;;20.00;;
35048;SDS011;21236;48.740;-3.446;2022-07-19T05:29:47;32.67;;;21.27;;
35048;SDS011;21236;48.740;-3.446;2022-07-19T05:32:13;30.63;;;19.80;;
35048;SDS011;21236;48.740;-3.446;2022-07-19T05:34:39;30.88;;;20.58;;
35048;SDS011;21236;48.740;-3.446;2022-07-19T05:37:05;30.65;;;20.42;;
35048;SDS011;21236;48.740;-3.446;2022-07-19T05:39:32;29.58;;;20.20;;
35048;SDS011;21236;48.740;-3.446;2022-07-19T05:41:58;25.15;;;18.38;;
35048;SDS011;21236;48.740;-3.446;2022-07-19T05:44:24;24.85;;;17.83;;
35048;SDS011;21236;48.740;-3.446;2022-07-19T05:46:50;25.02;;;17.67;;
35048;SDS011;21236;48.740;-3.446;2022-07-19T05:49:17;24.90;;;15.93;;
35048;SDS011;21236;48.740;-3.446;2022-07-19T05:51:43;21.95;;;15.95;;
35048;SDS011;21236;48.740;-3.446;2022-07-19T05:54:09;21.92;;;16.05;;
35048;SDS011;21236;48.740;-3.446;2022-07-19T05:56:35;24.73;;;16.08;;
35048;SDS011;21236;48.740;-3.446;2022-07-19T05:59:01;19.65;;;15.55;;
35048;SDS011;21236;48.740;-3.446;2022-07-19T06:01:28;18.75;;;14.07;;
35048;SDS011;21236;48.740;-3.446;2022-07-19T06:03:55;16.95;;;13.82;;
35048;SDS011;21236;48.740;-3.446;2022-07-19T06:06:21;17.90;;;13.20;;
35048;SDS011;21236;48.740;-3.446;2022-07-19T06:08:48;19.85;;;12.43;;
35048;SDS011;21236;48.740;-3.446;2022-07-19T06:11:15;18.65;;;13.05;;
35048;SDS011;21236;48.740;-3.446;2022-07-19T06:13:41;17.27;;;13.18;;
35048;SDS011;21236;48.740;-3.446;2022-07-19T06:16:08;18.88;;;12.98;;
35048;SDS011;21236;48.740;-3.446;2022-07-19T06:18:36;17.75;;;13.85;;
35048;SDS011;21236;48.740;-3.446;2022-07-19T06:21:07;18.15;;;13.45;;
35048;SDS011;21236;48.740;-3.446;2022-07-19T06:23:33;20.17;;;13.68;;
35048;SDS011;21236;48.740;-3.446;2022-07-19T06:25:59;18.80;;;13.75;;
35048;SDS011;21236;48.740;-3.446;2022-07-19T06:28:25;17.48;;;13.65;;
35048;SDS011;21236;48.740;-3.446;2022-07-19T06:30:52;18.52;;;13.85;;
35048;SDS011;21236;48.740;-3.446;2022-07-19T06:33:18;16.90;;;12.93;;
35048;SDS011;21236;48.740;-3.446;2022-07-19T06:35:45;20.42;;;12.95;;
35048;SDS011;21236;48.740;-3.446;2022-07-19T06:38:11;18.98;;;13.10;;
35048;SDS011;21236;48.740;-3.446;2022-07-19T06:40:37;16.90;;;13.18;;
35048;SDS011;21236;48.740;-3.446;2022-07-19T06:43:03;15.80;;;13.40;;
35048;SDS011;21236;48.740;-3.446;2022-07-19T06:45:30;19.08;;;13.63;;
35048;SDS011;21236;48.740;-3.446;2022-07-19T06:47:56;15.43;;;13.07;;
35048;SDS011;21236;48.740;-3.446;2022-07-19T06:50:23;15.75;;;12.13;;
35048;SDS011;21236;48.740;-3.446;2022-07-19T06:52:49;16.80;;;11.93;;
35048;SDS011;21236;48.740;-3.446;2022-07-19T06:55:15;16.95;;;11.68;;
35048;SDS011;21236;48.740;-3.446;2022-07-19T06:57:41;14.45;;;11.73;;
35048;SDS011;21236;48.740;-3.446;2022-07-19T07:00:08;14.98;;;10.32;;
35048;SDS011;21236;48.740;-3.446;2022-07-19T07:02:37;18.23;;;10.45;;
35048;SDS011;21236;48.740;-3.446;2022-07-19T07:05:04;13.55;;;10.15;;
35048;SDS011;21236;48.740;-3.446;2022-07-19T07:07:30;16.95;;;10.98;;
35048;SDS011;21236;48.740;-3.446;2022-07-19T07:09:56;16.40;;;10.50;;
35048;SDS011;21236;48.740;-3.446;2022-07-19T07:12:23;15.85;;;12.23;;
35048;SDS011;21236;48.740;-3.446;2022-07-19T07:14:49;16.98;;;12.27;;
35048;SDS011;21236;48.740;-3.446;2022-07-19T07:17:15;15.32;;;11.30;;
35048;SDS011;21236;48.740;-3.446;2022-07-19T07:19:41;18.45;;;11.93;;
35048;SDS011;21236;48.740;-3.446;2022-07-19T07:22:07;17.15;;;11.73;;
35048;SDS011;21236;48.740;-3.446;2022-07-19T07:24:33;18.33;;;13.40;;
35048;SDS011;21236;48.740;-3.446;2022-07-19T07:26:59;23.05;;;14.38;;
35048;SDS011;21236;48.740;-3.446;2022-07-19T07:29:25;22.58;;;16.35;;
35048;SDS011;21236;48.740;-3.446;2022-07-19T07:31:51;24.23;;;18.02;;
35048;SDS011;21236;48.740;-3.446;2022-07-19T07:34:18;23.17;;;17.25;;
35048;SDS011;21236;48.740;-3.446;2022-07-19T07:36:44;24.75;;;16.23;;
35048;SDS011;21236;48.740;-3.446;2022-07-19T07:39:10;21.65;;;16.13;;
35048;SDS011;21236;48.740;-3.446;2022-07-19T07:41:37;21.60;;;16.50;;
35048;SDS011;21236;48.740;-3.446;2022-07-19T07:44:03;21.58;;;15.77;;
35048;SDS011;21236;48.740;-3.446;2022-07-19T07:46:29;25.35;;;16.58;;
35048;SDS011;21236;48.740;-3.446;2022-07-19T07:48:55;22.77;;;15.52;;
35048;SDS011;21236;48.740;-3.446;2022-07-19T07:51:22;40.13;;;17.88;;
35048;SDS011;21236;48.740;-3.446;2022-07-19T07:53:48;41.60;;;19.88;;
35048;SDS011;21236;48.740;-3.446;2022-07-19T07:56:14;38.25;;;19.23;;
35048;SDS011;21236;48.740;-3.446;2022-07-19T07:58:40;31.20;;;19.05;;
35048;SDS011;21236;48.740;-3.446;2022-07-19T08:01:06;32.67;;;18.83;;
35048;SDS011;21236;48.740;-3.446;2022-07-19T08:03:32;30.48;;;20.27;;
35048;SDS011;21236;48.740;-3.446;2022-07-19T08:05:59;33.83;;;21.20;;
35048;SDS011;21236;48.740;-3.446;2022-07-19T08:08:25;31.52;;;22.77;;
35048;SDS011;21236;48.740;-3.446;2022-07-19T08:10:54;32.15;;;23.40;;
35048;SDS011;21236;48.740;-3.446;2022-07-19T08:13:21;32.47;;;23.70;;
35048;SDS011;21236;48.740;-3.446;2022-07-19T08:15:47;33.03;;;23.90;;
35048;SDS011;21236;48.740;-3.446;2022-07-19T08:18:13;37.75;;;25.92;;
35048;SDS011;21236;48.740;-3.446;2022-07-19T08:20:40;37.15;;;25.08;;
35048;SDS011;21236;48.740;-3.446;2022-07-19T08:23:06;34.88;;;24.88;;
35048;SDS011;21236;48.740;-3.446;2022-07-19T08:25:32;36.38;;;26.40;;
35048;SDS011;21236;48.740;-3.446;2022-07-19T08:27:59;37.20;;;26.70;;
35048;SDS011;21236;48.740;-3.446;2022-07-19T08:30:25;47.70;;;27.98;;
35048;SDS011;21236;48.740;-3.446;2022-07-19T08:32:52;41.97;;;28.10;;
35048;SDS011;21236;48.740;-3.446;2022-07-19T08:35:18;38.50;;;28.58;;
35048;SDS011;21236;48.740;-3.446;2022-07-19T08:37:44;40.30;;;27.13;;
35048;SDS011;21236;48.740;-3.446;2022-07-19T08:40:10;35.90;;;25.90;;
35048;SDS011;21236;48.740;-3.446;2022-07-19T08:42:37;38.30;;;26.42;;
35048;SDS011;21236;48.740;-3.446;2022-07-19T08:45:04;39.83;;;27.83;;
35048;SDS011;21236;48.740;-3.446;2022-07-19T08:47:31;47.97;;;26.45;;
35048;SDS011;21236;48.740;-3.446;2022-07-19T08:50:01;36.03;;;26.58;;
35048;SDS011;21236;48.740;-3.446;2022-07-19T08:52:27;38.85;;;27.20;;
35048;SDS011;21236;48.740;-3.446;2022-07-19T08:54:54;35.65;;;26.55;;
35048;SDS011;21236;48.740;-3.446;2022-07-19T08:57:21;34.25;;;26.42;;
35048;SDS011;21236;48.740;-3.446;2022-07-19T09:00:06;35.13;;;26.15;;
35048;SDS011;21236;48.740;-3.446;2022-07-19T09:02:32;37.33;;;27.08;;
35048;SDS011;21236;48.740;-3.446;2022-07-19T09:07:36;38.97;;;26.33;;
35048;SDS011;21236;48.740;-3.446;2022-07-19T09:10:17;40.35;;;25.60;;
35048;SDS011;21236;48.740;-3.446;2022-07-19T09:18:07;35.08;;;24.10;;
35048;SDS011;21236;48.740;-3.446;2022-07-19T09:20:33;35.20;;;25.40;;
35048;SDS011;21236;48.740;-3.446;2022-07-19T09:23:00;39.53;;;24.88;;
35048;SDS011;21236;48.740;-3.446;2022-07-19T09:25:37;40.58;;;24.88;;
35048;SDS011;21236;48.740;-3.446;2022-07-19T09:28:03;31.08;;;24.65;;
35048;SDS011;21236;48.740;-3.446;2022-07-19T09:30:33;32.58;;;24.38;;
35048;SDS011;21236;48.740;-3.446;2022-07-19T09:33:15;36.15;;;25.92;;
35048;SDS011;21236;48.740;-3.446;2022-07-19T09:35:46;37.17;;;27.13;;
35048;SDS011;21236;48.740;-3.446;2022-07-19T09:38:23;37.60;;;25.30;;
35048;SDS011;21236;48.740;-3.446;2022-07-19T09:40:51;39.38;;;28.13;;
35048;SDS011;21236;48.740;-3.446;2022-07-19T09:43:19;39.13;;;25.70;;
35048;SDS011;21236;48.740;-3.446;2022-07-19T09:45:47;44.95;;;28.52;;
35048;SDS011;21236;48.740;-3.446;2022-07-19T09:48:13;35.40;;;27.27;;
35048;SDS011;21236;48.740;-3.446;2022-07-19T09:50:41;41.20;;;26.30;;
35048;SDS011;21236;48.740;-3.446;2022-07-19T09:53:09;38.42;;;26.98;;
35048;SDS011;21236;48.740;-3.446;2022-07-19T09:55:35;34.67;;;26.73;;
35048;SDS011;21236;48.740;-3.446;2022-07-19T09:58:02;43.85;;;27.85;;
35048;SDS011;21236;48.740;-3.446;2022-07-19T10:00:29;38.85;;;27.83;;
35048;SDS011;21236;48.740;-3.446;2022-07-19T10:02:56;34.03;;;25.85;;
35048;SDS011;21236;48.740;-3.446;2022-07-19T10:05:23;41.05;;;27.63;;
35048;SDS011;21236;48.740;-3.446;2022-07-19T10:07:50;36.20;;;26.02;;
35048;SDS011;21236;48.740;-3.446;2022-07-19T10:10:17;40.67;;;25.52;;
35048;SDS011;21236;48.740;-3.446;2022-07-19T10:12:44;33.03;;;24.77;;
35048;SDS011;21236;48.740;-3.446;2022-07-19T10:15:11;35.10;;;25.05;;
35048;SDS011;21236;48.740;-3.446;2022-07-19T10:20:23;34.33;;;26.52;;
35048;SDS011;21236;48.740;-3.446;2022-07-19T10:22:50;36.13;;;25.63;;
35048;SDS011;21236;48.740;-3.446;2022-07-19T10:25:17;38.90;;;25.80;;
35048;SDS011;21236;48.740;-3.446;2022-07-19T10:32:36;36.70;;;27.05;;
35048;SDS011;21236;48.740;-3.446;2022-07-19T10:37:49;36.45;;;26.98;;
35048;SDS011;21236;48.740;-3.446;2022-07-19T10:45:33;42.33;;;27.27;;
35048;SDS011;21236;48.740;-3.446;2022-07-19T10:48:00;35.95;;;26.52;;
35048;SDS011;21236;48.740;-3.446;2022-07-19T10:50:43;56.25;;;38.70;;
35048;SDS011;21236;48.740;-3.446;2022-07-19T10:53:09;66.15;;;47.35;;
35048;SDS011;21236;48.740;-3.446;2022-07-19T10:55:35;93.65;;;66.78;;
35048;SDS011;21236;48.740;-3.446;2022-07-19T11:00:31;126.50;;;87.47;;
35048;SDS011;21236;48.740;-3.446;2022-07-19T11:05:55;122.47;;;82.35;;
35048;SDS011;21236;48.740;-3.446;2022-07-19T11:08:32;126.85;;;81.60;;
35048;SDS011;21236;48.740;-3.446;2022-07-19T11:11:05;123.88;;;82.88;;
35048;SDS011;21236;48.740;-3.446;2022-07-19T11:13:32;127.00;;;82.53;;
35048;SDS011;21236;48.740;-3.446;2022-07-19T11:15:58;143.00;;;86.45;;
35048;SDS011;21236;48.740;-3.446;2022-07-19T11:18:25;360.38;;;208.05;;
35048;SDS011;21236;48.740;-3.446;2022-07-19T11:20:51;396.63;;;227.80;;
35048;SDS011;21236;48.740;-3.446;2022-07-19T11:23:18;362.70;;;210.07;;
35048;SDS011;21236;48.740;-3.446;2022-07-19T11:25:45;261.15;;;151.35;;
35048;SDS011;21236;48.740;-3.446;2022-07-19T11:28:23;228.82;;;128.57;;
35048;SDS011;21236;48.740;-3.446;2022-07-19T11:30:50;202.82;;;117.47;;
35048;SDS011;21236;48.740;-3.446;2022-07-19T11:33:18;192.25;;;112.10;;
35048;SDS011;21236;48.740;-3.446;2022-07-19T11:38:19;151.50;;;89.63;;
35048;SDS011;21236;48.740;-3.446;2022-07-19T11:40:45;126.10;;;71.38;;
35048;SDS011;21236;48.740;-3.446;2022-07-19T11:43:11;110.75;;;63.17;;
35048;SDS011;21236;48.740;-3.446;2022-07-19T11:45:44;81.50;;;46.97;;
35048;SDS011;21236;48.740;-3.446;2022-07-19T11:48:11;71.97;;;43.80;;
35048;SDS011;21236;48.740;-3.446;2022-07-19T11:50:37;61.80;;;35.15;;
35048;SDS011;21236;48.740;-3.446;2022-07-19T11:53:06;49.03;;;29.77;;
35048;SDS011;21236;48.740;-3.446;2022-07-19T11:55:37;43.80;;;24.95;;
35048;SDS011;21236;48.740;-3.446;2022-07-19T11:58:07;41.25;;;21.88;;
35048;SDS011;21236;48.740;-3.446;2022-07-19T12:00:34;28.77;;;19.45;;
35048;SDS011;21236;48.740;-3.446;2022-07-19T12:03:04;37.95;;;19.92;;
35048;SDS011;21236;48.740;-3.446;2022-07-19T12:05:35;29.70;;;16.88;;
35048;SDS011;21236;48.740;-3.446;2022-07-19T12:08:05;25.52;;;15.95;;
35048;SDS011;21236;48.740;-3.446;2022-07-19T12:10:32;32.85;;;15.18;;
35048;SDS011;21236;48.740;-3.446;2022-07-19T12:12:59;34.00;;;14.43;;
35048;SDS011;21236;48.740;-3.446;2022-07-19T12:15:25;31.90;;;14.88;;
35048;SDS011;21236;48.740;-3.446;2022-07-19T12:17:55;30.02;;;14.05;;
35048;SDS011;21236;48.740;-3.446;2022-07-19T12:20:24;27.02;;;12.98;;
35048;SDS011;21236;48.740;-3.446;2022-07-19T12:22:51;26.58;;;13.25;;
35048;SDS011;21236;48.740;-3.446;2022-07-19T12:25:34;27.58;;;12.88;;
35048;SDS011;21236;48.740;-3.446;2022-07-19T12:28:01;29.83;;;13.45;;
35048;SDS011;21236;48.740;-3.446;2022-07-19T12:30:27;31.02;;;14.63;;
35048;SDS011;21236;48.740;-3.446;2022-07-19T12:33:04;32.70;;;14.98;;
35048;SDS011;21236;48.740;-3.446;2022-07-19T12:35:40;27.73;;;13.82;;
35048;SDS011;21236;48.740;-3.446;2022-07-19T12:38:07;26.70;;;13.60;;
35048;SDS011;21236;48.740;-3.446;2022-07-19T12:40:36;26.75;;;14.57;;
35048;SDS011;21236;48.740;-3.446;2022-07-19T12:43:02;29.42;;;14.15;;
35048;SDS011;21236;48.740;-3.446;2022-07-19T12:45:33;30.08;;;14.55;;
35048;SDS011;21236;48.740;-3.446;2022-07-19T12:48:00;28.15;;;13.32;;
35048;SDS011;21236;48.740;-3.446;2022-07-19T12:50:28;31.90;;;14.50;;
35048;SDS011;21236;48.740;-3.446;2022-07-19T12:52:56;25.90;;;12.05;;
35048;SDS011;21236;48.740;-3.446;2022-07-19T12:55:23;23.58;;;12.27;;
35048;SDS011;21236;48.740;-3.446;2022-07-19T12:57:50;31.45;;;13.32;;
35048;SDS011;21236;48.740;-3.446;2022-07-19T13:00:17;28.52;;;13.23;;
35048;SDS011;21236;48.740;-3.446;2022-07-19T13:02:44;36.60;;;13.25;;
35048;SDS011;21236;48.740;-3.446;2022-07-19T13:05:11;24.20;;;12.05;;
35048;SDS011;21236;48.740;-3.446;2022-07-19T13:07:37;25.02;;;11.55;;
35048;SDS011;21236;48.740;-3.446;2022-07-19T13:10:03;30.60;;;13.18;;
35048;SDS011;21236;48.740;-3.446;2022-07-19T13:12:30;26.95;;;12.68;;
35048;SDS011;21236;48.740;-3.446;2022-07-19T13:14:56;28.25;;;13.05;;
35048;SDS011;21236;48.740;-3.446;2022-07-19T13:17:22;29.90;;;12.75;;
35048;SDS011;21236;48.740;-3.446;2022-07-19T13:19:48;25.17;;;12.15;;
35048;SDS011;21236;48.740;-3.446;2022-07-19T13:22:14;28.13;;;11.73;;
35048;SDS011;21236;48.740;-3.446;2022-07-19T13:24:40;28.65;;;12.55;;
35048;SDS011;21236;48.740;-3.446;2022-07-19T13:27:07;22.05;;;12.32;;
35048;SDS011;21236;48.740;-3.446;2022-07-19T13:29:33;25.38;;;11.68;;
35048;SDS011;21236;48.740;-3.446;2022-07-19T13:31:59;27.15;;;13.45;;
35048;SDS011;21236;48.740;-3.446;2022-07-19T13:34:26;31.05;;;12.75;;
35048;SDS011;21236;48.740;-3.446;2022-07-19T13:36:52;24.88;;;13.23;;
35048;SDS011;21236;48.740;-3.446;2022-07-19T13:39:18;23.92;;;12.05;;
35048;SDS011;21236;48.740;-3.446;2022-07-19T13:41:44;30.13;;;12.63;;
35048;SDS011;21236;48.740;-3.446;2022-07-19T13:44:10;27.58;;;11.20;;
35048;SDS011;21236;48.740;-3.446;2022-07-19T13:46:36;26.48;;;11.77;;
35048;SDS011;21236;48.740;-3.446;2022-07-19T13:49:03;22.02;;;11.55;;
35048;SDS011;21236;48.740;-3.446;2022-07-19T13:51:29;24.70;;;12.13;;
35048;SDS011;21236;48.740;-3.446;2022-07-19T13:53:55;21.75;;;10.88;;
35048;SDS011;21236;48.740;-3.446;2022-07-19T13:56:21;28.02;;;11.20;;
35048;SDS011;21236;48.740;-3.446;2022-07-19T13:58:48;28.35;;;10.95;;
35048;SDS011;21236;48.740;-3.446;2022-07-19T14:01:14;24.23;;;10.68;;
35048;SDS011;21236;48.740;-3.446;2022-07-19T14:03:41;23.95;;;11.27;;
35048;SDS011;21236;48.740;-3.446;2022-07-19T14:06:07;23.05;;;10.30;;
35048;SDS011;21236;48.740;-3.446;2022-07-19T14:08:33;22.15;;;10.55;;
35048;SDS011;21236;48.740;-3.446;2022-07-19T14:10:59;23.80;;;10.63;;
35048;SDS011;21236;48.740;-3.446;2022-07-19T14:13:26;24.10;;;10.48;;
35048;SDS011;21236;48.740;-3.446;2022-07-19T14:15:52;19.33;;;10.18;;
35048;SDS011;21236;48.740;-3.446;2022-07-19T14:18:19;23.50;;;10.77;;
35048;SDS011;21236;48.740;-3.446;2022-07-19T14:20:45;19.40;;;9.80;;
35048;SDS011;21236;48.740;-3.446;2022-07-19T14:23:11;18.35;;;10.07;;
35048;SDS011;21236;48.740;-3.446;2022-07-19T14:25:38;23.15;;;9.80;;
35048;SDS011;21236;48.740;-3.446;2022-07-19T14:28:04;23.10;;;10.82;;
35048;SDS011;21236;48.740;-3.446;2022-07-19T14:30:30;16.33;;;9.43;;
35048;SDS011;21236;48.740;-3.446;2022-07-19T14:32:57;17.27;;;9.85;;
35048;SDS011;21236;48.740;-3.446;2022-07-19T14:35:23;26.15;;;11.00;;
35048;SDS011;21236;48.740;-3.446;2022-07-19T14:37:49;21.10;;;10.48;;
35048;SDS011;21236;48.740;-3.446;2022-07-19T14:40:15;17.40;;;9.60;;